Time;durP1;ratioP1;P1;durP2;ratioP2;P2;SDS_P1;SDS_P2;PMS_P1;PMS_P2;Temp;Humidity;BMP_temperature;BMP_pressure;BME280_temperature;BME280_humidity;BME280_pressure;Samples;Min_cycle;Max_cycle;Signal;HPM_P1;HPM_P2
2023/10/03 00:00:31;;;;;;;44.25;20.67;;;19.40;99.90;;;;;;5063757;28;20025;-91
2023/10/03 00:03:13;;;;;;;43.97;20.33;;;20.40;99.90;;;;;;5019787;28;20068;-91
2023/10/03 00:05:42;;;;;;;45.20;20.85;;;19.30;99.90;;;;;;5059108;28;20033;-90
2023/10/03 00:08:23;;;;;;;48.60;22.58;;;19.90;99.90;;;;;;5071123;28;20036;-92
2023/10/03 00:10:49;;;;;;;44.72;21.35;;;19.40;99.90;;;;;;5076001;28;20014;-91
2023/10/03 00:15:57;;;;;;;49.22;22.27;;;19.30;99.90;;;;;;5083541;22;20043;-91
2023/10/03 00:18:23;;;;;;;46.83;21.70;;;19.30;99.90;;;;;;5060665;28;20057;-93
2023/10/03 00:20:49;;;;;;;47.17;22.13;;;19.30;99.90;;;;;;5035592;28;20108;-91
2023/10/03 00:23:20;;;;;;;44.88;20.60;;;19.10;99.90;;;;;;5001662;28;20125;-92
2023/10/03 00:25:46;;;;;;;53.33;22.67;;;19.30;99.90;;;;;;5034442;28;20029;-92
2023/10/03 00:28:12;;;;;;;48.20;21.65;;;19.20;99.90;;;;;;5034770;28;20044;-91
2023/10/03 00:30:45;;;;;;;53.35;23.17;;;19.20;99.90;;;;;;5034152;28;20033;-92
2023/10/03 00:33:13;;;;;;;48.38;22.25;;;19.20;99.90;;;;;;5034502;28;20108;-90
2023/10/03 00:35:42;;;;;;;49.03;21.02;;;19.20;99.90;;;;;;5041521;23;20053;-92
2023/10/03 00:38:14;;;;;;;49.38;21.67;;;19.10;99.90;;;;;;5034481;28;20022;-91
2023/10/03 00:40:43;;;;;;;45.90;22.15;;;20.10;99.90;;;;;;5016125;28;20041;-91
2023/10/03 00:43:08;;;;;;;49.95;22.52;;;19.10;99.90;;;;;;5015349;28;20033;-92
2023/10/03 00:45:34;;;;;;;48.72;22.75;;;20.10;99.90;;;;;;5014967;28;20026;-92
2023/10/03 00:48:06;;;;;;;53.78;21.50;;;20.10;99.90;;;;;;5014706;28;20017;-91
2023/10/03 00:50:33;;;;;;;45.88;21.95;;;19.10;99.90;;;;;;5015036;28;20045;-90
2023/10/03 00:53:04;;;;;;;50.55;22.10;;;19.10;99.90;;;;;;5014611;28;20024;-92
2023/10/03 00:55:33;;;;;;;43.63;20.52;;;19.10;99.90;;;;;;5014705;28;20053;-92
2023/10/03 01:00:39;;;;;;;49.30;23.05;;;19.10;99.90;;;;;;5014664;28;20065;-91
2023/10/03 01:03:09;;;;;;;48.45;22.67;;;19.10;99.90;;;;;;5026988;28;20014;-90
2023/10/03 01:05:36;;;;;;;50.55;21.58;;;19.00;99.90;;;;;;5031774;28;20477;-90
2023/10/03 01:08:03;;;;;;;53.22;22.90;;;19.30;99.90;;;;;;5034269;28;20063;-90
2023/10/03 01:10:51;;;;;;;51.53;22.38;;;19.10;99.90;;;;;;5034005;28;20033;-92
2023/10/03 01:13:32;;;;;;;53.75;23.02;;;19.10;99.90;;;;;;5033904;28;20481;-92
2023/10/03 01:15:58;;;;;;;52.00;21.15;;;20.00;99.90;;;;;;5032977;28;20090;-90
2023/10/03 01:18:43;;;;;;;46.15;22.98;;;19.10;99.90;;;;;;5034222;28;20021;-93
2023/10/03 01:21:13;;;;;;;51.45;22.02;;;19.00;99.90;;;;;;5033714;28;20025;-92
2023/10/03 01:23:40;;;;;;;45.90;22.33;;;19.70;99.90;;;;;;5033838;28;20033;-92
2023/10/03 01:26:21;;;;;;;49.92;22.50;;;19.00;99.90;;;;;;5007244;28;20038;-91
2023/10/03 01:28:48;;;;;;;50.58;23.42;;;19.00;99.90;;;;;;5043003;28;20038;-92
2023/10/03 01:31:14;;;;;;;53.40;23.38;;;19.00;99.90;;;;;;5028782;28;20033;-93
2023/10/03 01:33:55;;;;;;;46.67;22.33;;;19.00;99.90;;;;;;5013693;28;20030;-90
2023/10/03 01:36:20;;;;;;;47.40;21.77;;;19.00;99.90;;;;;;5014332;28;20154;-89
2023/10/03 01:38:46;;;;;;;46.67;22.48;;;19.50;99.90;;;;;;5013764;28;20532;-91
2023/10/03 01:41:27;;;;;;;51.90;22.42;;;19.10;99.90;;;;;;5014990;28;20172;-91
2023/10/03 01:43:52;;;;;;;49.67;22.13;;;19.00;99.90;;;;;;5016100;28;20045;-90
2023/10/03 01:46:27;;;;;;;49.75;22.05;;;19.30;99.90;;;;;;5030018;28;20013;-91
2023/10/03 01:48:52;;;;;;;45.67;21.98;;;19.20;99.90;;;;;;5041670;28;20041;-90
2023/10/03 01:51:36;;;;;;;45.95;21.85;;;19.10;99.90;;;;;;5054549;28;20009;-91
2023/10/03 01:54:02;;;;;;;47.75;22.33;;;18.90;99.90;;;;;;5057447;28;20014;-90
2023/10/03 01:56:50;;;;;;;47.97;22.15;;;19.00;99.90;;;;;;5038193;28;20049;-91
2023/10/03 01:59:16;;;;;;;44.20;21.55;;;18.70;99.90;;;;;;5016556;28;20082;-92
2023/10/03 02:01:42;;;;;;;47.15;22.42;;;19.90;99.90;;;;;;5030754;28;20040;-92
2023/10/03 02:04:28;;;;;;;41.80;20.63;;;19.10;99.90;;;;;;5014367;28;20026;-90
2023/10/03 02:06:54;;;;;;;50.10;21.10;;;19.00;99.90;;;;;;4993054;28;20030;-85
2023/10/03 02:09:21;;;;;;;43.03;20.63;;;19.00;99.90;;;;;;5013688;28;20026;-91
2023/10/03 02:11:47;;;;;;;41.08;19.52;;;19.00;99.90;;;;;;5013954;28;20053;-92
2023/10/03 02:14:12;;;;;;;48.05;19.95;;;19.40;99.90;;;;;;5013907;28;20038;-91
2023/10/03 02:16:46;;;;;;;43.72;19.40;;;19.10;99.90;;;;;;5014919;28;20025;-91
2023/10/03 02:19:12;;;;;;;40.03;18.98;;;19.50;99.90;;;;;;5027280;28;20021;-91
2023/10/03 02:21:41;;;;;;;47.55;19.63;;;20.30;99.90;;;;;;5037256;28;20034;-92
2023/10/03 02:24:07;;;;;;;43.53;18.70;;;19.60;99.90;;;;;;5049882;28;20034;-92
2023/10/03 02:26:33;;;;;;;34.97;16.77;;;19.30;99.90;;;;;;5050719;28;20060;-93
2023/10/03 02:29:16;;;;;;;37.40;18.00;;;19.30;99.90;;;;;;5047424;28;20029;-91
2023/10/03 02:31:43;;;;;;;38.67;16.70;;;19.40;99.90;;;;;;5037239;28;20025;-92
2023/10/03 02:34:31;;;;;;;34.50;15.18;;;20.00;99.90;;;;;;5036580;28;20175;-93
2023/10/03 02:36:57;;;;;;;36.42;16.00;;;19.60;99.90;;;;;;5037514;28;20045;-93
2023/10/03 02:39:25;;;;;;;39.05;15.63;;;19.80;99.90;;;;;;5037491;28;20055;-92
2023/10/03 02:41:56;;;;;;;29.88;14.85;;;19.70;99.90;;;;;;5029250;28;20037;-93
2023/10/03 02:44:23;;;;;;;28.23;14.05;;;19.70;99.90;;;;;;5035938;28;20053;-93
2023/10/03 02:47:04;;;;;;;36.25;15.32;;;19.80;99.90;;;;;;5036604;28;20033;-93
2023/10/03 02:49:30;;;;;;;33.75;14.35;;;19.80;99.90;;;;;;5037130;28;20053;-91
2023/10/03 02:51:59;;;;;;;27.48;14.13;;;19.80;99.90;;;;;;5040545;28;20390;-92
2023/10/03 02:54:25;;;;;;;30.90;14.00;;;21.10;99.90;;;;;;5036960;28;20109;-92
2023/10/03 02:56:51;;;;;;;42.13;14.73;;;21.00;99.90;;;;;;5037091;28;20517;-91
2023/10/03 02:59:17;;;;;;;28.38;13.82;;;19.90;99.90;;;;;;5048609;28;20026;-94
2023/10/03 03:01:57;;;;;;;30.70;13.98;;;20.20;99.90;;;;;;5037246;28;20033;-93
2023/10/03 03:04:23;;;;;;;23.45;12.70;;;20.00;99.90;;;;;;5036490;28;20030;-92
2023/10/03 03:09:36;;;;;;;26.55;13.05;;;20.00;99.90;;;;;;5036592;28;20394;-92
2023/10/03 03:12:04;;;;;;;25.13;11.65;;;20.20;99.90;;;;;;5036291;28;20025;-91
2023/10/03 03:14:30;;;;;;;22.08;11.70;;;20.00;99.90;;;;;;5035733;28;20033;-92
2023/10/03 03:16:56;;;;;;;22.58;11.00;;;20.00;99.90;;;;;;5035778;28;20029;-89
2023/10/03 03:19:23;;;;;;;19.50;10.30;;;20.00;99.90;;;;;;5018916;28;20026;-92
2023/10/03 03:21:50;;;;;;;17.73;9.75;;;19.90;99.90;;;;;;5016151;28;20108;-91
2023/10/03 03:24:33;;;;;;;21.65;10.07;;;19.90;99.90;;;;;;5016077;28;20398;-91
2023/10/03 03:26:58;;;;;;;18.80;10.10;;;21.10;99.90;;;;;;5016725;28;20431;-90
2023/10/03 03:29:35;;;;;;;23.30;9.68;;;19.90;99.90;;;;;;5016168;28;20065;-91
2023/10/03 03:32:02;;;;;;;20.08;8.82;;;20.40;99.90;;;;;;5015777;28;20060;-90
2023/10/03 03:34:29;;;;;;;17.90;9.93;;;19.80;99.90;;;;;;5015689;28;20133;-91
2023/10/03 03:37:23;;;;;;;21.83;9.75;;;20.40;99.90;;;;;;5015113;28;20453;-92
2023/10/03 03:39:56;;;;;;;24.77;8.70;;;19.70;99.90;;;;;;5027561;28;20033;-91
2023/10/03 03:42:22;;;;;;;17.88;7.90;;;19.70;99.90;;;;;;5034184;28;20083;-90
2023/10/03 03:44:48;;;;;;;25.33;8.05;;;19.80;99.90;;;;;;5035316;28;20033;-91
2023/10/03 03:47:13;;;;;;;20.73;6.93;;;19.60;99.90;;;;;;5035325;28;20022;-91
2023/10/03 03:49:40;;;;;;;16.10;7.10;;;20.50;99.90;;;;;;5035006;28;20069;-91
2023/10/03 03:52:06;;;;;;;18.40;7.18;;;19.30;99.90;;;;;;5035530;28;20053;-91
2023/10/03 03:54:33;;;;;;;19.98;6.10;;;19.10;99.90;;;;;;5025658;28;20038;-91
2023/10/03 03:56:59;;;;;;;21.58;7.15;;;19.10;99.90;;;;;;5027380;28;20462;-91
2023/10/03 03:59:24;;;;;;;23.85;6.93;;;19.50;99.90;;;;;;5016238;28;20033;-90
2023/10/03 04:01:50;;;;;;;17.80;6.53;;;20.30;99.90;;;;;;5014850;28;20022;-90
2023/10/03 04:04:16;;;;;;;21.45;6.30;;;19.10;99.90;;;;;;5015248;28;20030;-90
2023/10/03 04:06:45;;;;;;;26.38;6.97;;;19.10;99.90;;;;;;5014666;28;20529;-90
2023/10/03 04:09:11;;;;;;;22.92;7.15;;;19.00;99.90;;;;;;5023465;28;20528;-90
2023/10/03 04:11:37;;;;;;;19.17;7.25;;;19.00;99.90;;;;;;5034287;28;20029;-90
2023/10/03 04:14:05;;;;;;;21.02;7.25;;;19.00;99.90;;;;;;5017687;28;20481;-91
2023/10/03 04:16:38;;;;;;;21.58;7.13;;;19.00;99.90;;;;;;5034535;28;20029;-90
2023/10/03 04:19:05;;;;;;;12.88;6.63;;;20.00;99.90;;;;;;5034969;28;20025;-90
2023/10/03 04:21:32;;;;;;;20.10;7.40;;;18.90;99.90;;;;;;5034784;28;20032;-90
2023/10/03 04:23:59;;;;;;;21.08;6.95;;;19.10;99.90;;;;;;5035029;28;20104;-91
2023/10/03 04:26:32;;;;;;;23.65;6.82;;;18.90;99.90;;;;;;4983656;28;20037;-90
2023/10/03 04:29:11;;;;;;;20.33;7.82;;;18.80;99.90;;;;;;5034687;28;20071;-89
2023/10/03 04:31:37;;;;;;;21.90;6.88;;;18.80;99.90;;;;;;5017514;28;20071;-90
2023/10/03 04:34:03;;;;;;;22.67;6.43;;;20.00;99.90;;;;;;5034417;28;20359;-91
2023/10/03 04:36:29;;;;;;;20.67;6.00;;;18.80;99.90;;;;;;5034979;28;20033;-89
2023/10/03 04:38:54;;;;;;;11.27;6.40;;;18.80;99.90;;;;;;5034462;28;20022;-92
2023/10/03 04:41:20;;;;;;;14.80;5.93;;;18.90;99.90;;;;;;5034587;28;20029;-92
2023/10/03 04:43:46;;;;;;;11.02;5.40;;;19.20;99.90;;;;;;5034656;28;20025;-91
2023/10/03 04:46:11;;;;;;;11.77;5.40;;;18.70;99.90;;;;;;5035277;28;20786;-92
2023/10/03 04:48:38;;;;;;;13.07;5.47;;;19.30;99.90;;;;;;5035203;28;20096;-93
2023/10/03 04:51:19;;;;;;;12.38;4.70;;;19.30;99.90;;;;;;5038453;28;20021;-89
2023/10/03 04:53:45;;;;;;;10.50;4.70;;;19.00;99.90;;;;;;5039187;28;20037;-91
2023/10/03 04:56:11;;;;;;;15.95;5.43;;;18.70;99.90;;;;;;5038200;28;20026;-92
2023/10/03 04:58:37;;;;;;;14.35;4.35;;;18.70;99.90;;;;;;5035811;28;20030;-90
2023/10/03 05:01:03;;;;;;;12.80;5.35;;;19.00;99.90;;;;;;5020659;28;20482;-92
2023/10/03 05:03:30;;;;;;;8.45;4.35;;;19.40;99.90;;;;;;5015669;28;20034;-92
2023/10/03 05:05:56;;;;;;;14.55;5.22;;;18.70;99.90;;;;;;5016081;28;20040;-89
2023/10/03 05:08:22;;;;;;;8.70;4.25;;;18.80;99.90;;;;;;5015168;28;20026;-92
2023/10/03 05:10:54;;;;;;;11.55;4.80;;;18.60;99.90;;;;;;5016112;28;20033;-92
2023/10/03 05:13:34;;;;;;;16.33;5.50;;;19.50;99.90;;;;;;5015548;28;20022;-91
2023/10/03 05:16:00;;;;;;;12.95;5.15;;;18.60;99.90;;;;;;5015333;28;20113;-91
2023/10/03 05:18:26;;;;;;;10.15;4.85;;;19.30;99.90;;;;;;5023919;28;20010;-90
2023/10/03 05:21:10;;;;;;;14.25;4.88;;;19.70;99.90;;;;;;5049037;28;20028;-91
2023/10/03 05:23:36;;;;;;;13.18;4.82;;;18.80;99.90;;;;;;5056084;28;20030;-94
2023/10/03 05:26:19;;;;;;;12.55;5.13;;;18.60;99.90;;;;;;5056485;28;20018;-92
2023/10/03 05:29:07;;;;;;;13.98;6.28;;;18.50;99.90;;;;;;5040858;28;20036;-93
2023/10/03 05:31:41;;;;;;;13.20;5.80;;;18.40;99.90;;;;;;5036011;28;20032;-92
2023/10/03 05:34:08;;;;;;;13.40;5.03;;;18.50;99.90;;;;;;4994434;28;20502;-92
2023/10/03 05:36:33;;;;;;;16.10;5.75;;;19.10;99.90;;;;;;4994076;28;20041;-89
2023/10/03 05:39:18;;;;;;;12.73;5.05;;;18.80;99.90;;;;;;5025648;28;20021;-92
2023/10/03 05:41:44;;;;;;;15.68;6.00;;;18.60;99.90;;;;;;5035323;28;20030;-94
2023/10/03 05:44:13;;;;;;;15.63;5.47;;;19.40;99.90;;;;;;5034271;28;20485;-89
2023/10/03 05:46:57;;;;;;;18.00;5.68;;;18.60;99.90;;;;;;4998707;28;20027;-89
2023/10/03 05:49:26;;;;;;;13.82;5.43;;;19.20;99.90;;;;;;4998653;28;21417;-88
2023/10/03 05:51:55;;;;;;;17.75;6.10;;;18.80;99.90;;;;;;5014204;28;20427;-91
2023/10/03 05:54:25;;;;;;;17.60;5.17;;;18.60;99.90;;;;;;4995217;28;20026;-91
2023/10/03 05:56:52;;;;;;;11.57;5.13;;;18.60;99.90;;;;;;5013228;28;20030;-91
2023/10/03 05:59:20;;;;;;;20.67;6.07;;;19.50;99.90;;;;;;5013544;28;20087;-91
2023/10/03 06:01:49;;;;;;;11.55;5.15;;;18.60;99.90;;;;;;5015534;28;20109;-91
2023/10/03 06:04:14;;;;;;;15.20;5.50;;;18.60;99.90;;;;;;5017435;28;20168;-89
2023/10/03 06:06:40;;;;;;;13.45;4.78;;;19.80;99.90;;;;;;5017260;28;20108;-91
2023/10/03 06:09:33;;;;;;;11.15;4.97;;;19.90;99.90;;;;;;5017227;28;20107;-89
2023/10/03 06:12:10;;;;;;;13.38;5.13;;;18.50;99.90;;;;;;5017683;28;20048;-92
2023/10/03 06:14:39;;;;;;;12.40;5.30;;;18.90;99.90;;;;;;5017539;28;20113;-90
2023/10/03 06:17:12;;;;;;;12.50;5.22;;;18.50;99.90;;;;;;5083740;23;20121;-90
2023/10/03 06:19:38;;;;;;;15.63;5.50;;;18.40;99.90;;;;;;5036583;28;20393;-89
2023/10/03 06:22:26;;;;;;;18.88;5.38;;;18.30;99.90;;;;;;5037043;28;20044;-93
2023/10/03 06:25:12;;;;;;;9.88;3.90;;;18.20;99.90;;;;;;5036104;28;20025;-90
2023/10/03 06:27:37;;;;;;;7.60;3.95;;;18.10;99.90;;;;;;5039158;28;20097;-93
2023/10/03 06:30:04;;;;;;;8.10;3.38;;;18.00;99.90;;;;;;5037339;28;20469;-87
2023/10/03 06:32:39;;;;;;;9.07;3.15;;;18.00;99.90;;;;;;5035689;28;20393;-86
2023/10/03 06:35:05;;;;;;;8.73;4.03;;;17.90;99.90;;;;;;5036367;28;20033;-86
2023/10/03 06:37:33;;;;;;;10.18;3.72;;;17.90;99.90;;;;;;5036440;28;20041;-85
2023/10/03 06:40:17;;;;;;;9.18;3.35;;;17.90;99.90;;;;;;5053261;23;20076;-86
2023/10/03 06:42:52;;;;;;;8.73;3.35;;;17.90;99.90;;;;;;5075595;28;20025;-85
2023/10/03 06:45:21;;;;;;;13.10;3.78;;;17.80;99.90;;;;;;5075075;28;20024;-85
2023/10/03 06:47:46;;;;;;;12.93;3.40;;;18.30;99.90;;;;;;5047113;28;20485;-83
2023/10/03 06:50:15;;;;;;;7.90;2.92;;;18.90;99.90;;;;;;5053242;28;20068;-85
2023/10/03 06:52:41;;;;;;;5.68;2.47;;;19.20;99.90;;;;;;5060589;28;20078;-86
2023/10/03 06:55:15;;;;;;;12.27;3.20;;;17.90;99.90;;;;;;5055015;28;20037;-86
2023/10/03 06:57:44;;;;;;;8.27;3.10;;;18.70;99.90;;;;;;5039676;28;20048;-84
2023/10/03 07:00:14;;;;;;;8.57;2.38;;;17.90;99.90;;;;;;5054716;28;20025;-86
2023/10/03 07:02:40;;;;;;;12.20;3.60;;;17.90;99.90;;;;;;5054046;28;20028;-86
2023/10/03 07:05:07;;;;;;;7.97;3.08;;;19.20;99.90;;;;;;5052814;28;20519;-85
2023/10/03 07:07:33;;;;;;;9.38;2.97;;;17.20;99.90;;;;;;5050862;28;20037;-86
2023/10/03 07:10:00;;;;;;;7.78;2.95;;;19.30;99.90;;;;;;5058653;28;20032;-85
2023/10/03 07:12:30;;;;;;;5.30;2.08;;;17.90;99.90;;;;;;5066280;28;20047;-86
2023/10/03 07:14:59;;;;;;;10.63;2.90;;;17.90;99.90;;;;;;5072250;28;20055;-86
2023/10/03 07:17:40;;;;;;;10.82;2.85;;;18.00;99.90;;;;;;5072929;28;20029;-85
2023/10/03 07:20:09;;;;;;;8.75;2.63;;;17.90;99.90;;;;;;5072515;28;20025;-84
2023/10/03 07:22:36;;;;;;;9.18;2.10;;;17.80;99.90;;;;;;5072113;28;20063;-84
2023/10/03 07:25:06;;;;;;;5.07;1.92;;;17.60;99.90;;;;;;5073910;28;20032;-82
2023/10/03 07:27:33;;;;;;;5.93;2.47;;;17.60;99.90;;;;;;5070216;28;20373;-88
2023/10/03 07:29:59;;;;;;;8.85;2.67;;;17.50;99.90;;;;;;5054618;28;20042;-88
2023/10/03 07:32:24;;;;;;;4.28;1.98;;;17.50;99.90;;;;;;5066677;28;20024;-89
2023/10/03 07:34:50;;;;;;;12.25;2.78;;;17.30;99.90;;;;;;5066543;28;20120;-87
2023/10/03 07:37:18;;;;;;;5.60;1.83;;;17.30;99.90;;;;;;5054681;28;20021;-88
2023/10/03 07:42:30;;;;;;;5.78;2.30;;;17.20;99.90;;;;;;5075228;28;20385;-88
2023/10/03 07:44:56;;;;;;;5.43;1.65;;;18.20;99.90;;;;;;5067332;28;20104;-88
2023/10/03 07:50:23;;;;;;;4.55;1.58;;;17.80;99.90;;;;;;5038346;28;20047;-83
2023/10/03 07:52:49;;;;;;;5.50;1.73;;;18.30;99.90;;;;;;5052154;28;20887;-83
2023/10/03 07:55:27;;;;;;;3.45;1.50;;;17.00;99.90;;;;;;5053597;28;20117;-83
2023/10/03 07:58:05;;;;;;;3.28;1.33;;;17.20;99.90;;;;;;5068132;28;20032;-88
2023/10/03 08:00:46;;;;;;;3.83;1.40;;;17.00;99.90;;;;;;5075271;28;20033;-91
2023/10/03 08:04:08;;;;;;;6.65;1.40;;;17.00;99.90;;;;;;5075325;28;20035;-89
2023/10/03 08:06:33;;;;;;;7.18;2.00;;;16.80;99.90;;;;;;5070195;28;20036;-89
2023/10/03 08:09:00;;;;;;;6.10;1.42;;;16.80;99.90;;;;;;5054909;28;20053;-89
2023/10/03 08:11:30;;;;;;;6.72;1.95;;;16.70;99.90;;;;;;5054604;28;20413;-90
2023/10/03 08:14:24;;;;;;;11.18;1.70;;;16.60;99.90;;;;;;5058494;28;20052;-90
2023/10/03 08:16:48;;;;;;;6.97;1.52;;;16.70;99.90;;;;;;5067937;28;20104;-90
2023/10/03 08:19:22;;;;;;;4.05;1.30;;;16.70;99.90;;;;;;5078188;28;20063;-91
2023/10/03 08:21:54;;;;;;;7.38;1.30;;;17.90;99.90;;;;;;5077662;28;20025;-89
2023/10/03 08:24:32;;;;;;;7.40;1.90;;;16.70;99.90;;;;;;5065977;28;20021;-92
2023/10/03 08:30:06;;;;;;;9.35;1.58;;;17.00;99.90;;;;;;5022702;28;20040;-92
2023/10/03 08:32:39;;;;;;;6.25;1.80;;;16.80;99.90;;;;;;5147018;22;20501;-90
2023/10/03 08:35:14;;;;;;;5.97;1.85;;;16.80;99.90;;;;;;5046212;28;20115;-84
2023/10/03 08:37:57;;;;;;;4.72;1.27;;;16.80;99.90;;;;;;5054157;28;20021;-83
2023/10/03 08:40:40;;;;;;;2.05;1.02;;;17.80;99.90;;;;;;5053972;28;20032;-87
2023/10/03 08:43:10;;;;;;;4.20;1.10;;;17.90;99.90;;;;;;5054967;28;20025;-88
2023/10/03 08:45:39;;;;;;;;;;;17.20;99.90;;;;;;5054891;28;20035;-86
2023/10/03 08:48:08;;;;;;;3.30;0.93;;;16.40;99.90;;;;;;5056944;28;19952;-94
2023/10/03 08:50:40;;;;;;;4.35;0.90;;;16.30;99.90;;;;;;5053963;28;20059;-90
2023/10/03 08:53:26;;;;;;;2.25;0.70;;;16.20;99.90;;;;;;5054011;28;20029;-94
2023/10/03 08:55:58;;;;;;;3.15;0.88;;;16.20;99.90;;;;;;5054640;28;20040;-89
2023/10/03 08:58:25;;;;;;;2.30;0.93;;;16.90;99.90;;;;;;5034345;28;20017;-92
2023/10/03 09:04:15;;;;;;;12.23;5.03;;;16.10;99.90;;;;;;5035791;28;20071;-92
2023/10/03 09:07:00;;;;;;;2.83;0.82;;;16.00;99.90;;;;;;5042318;28;20021;-91
2023/10/03 09:09:42;;;;;;;8.18;1.10;;;16.00;99.90;;;;;;5046415;28;20052;-92
2023/10/03 09:12:08;;;;;;;3.53;0.85;;;16.40;99.90;;;;;;5045432;28;20025;-92
2023/10/03 09:14:40;;;;;;;2.28;0.98;;;16.10;99.90;;;;;;5034375;28;20083;-93
2023/10/03 09:17:20;;;;;;;3.88;1.02;;;16.20;99.90;;;;;;5034240;28;20386;-90
2023/10/03 09:19:46;;;;;;;4.00;1.02;;;16.40;99.90;;;;;;5033469;28;20040;-89
2023/10/03 09:22:15;;;;;;;4.85;1.17;;;16.80;99.90;;;;;;5050489;28;20440;-90
2023/10/03 09:24:44;;;;;;;4.70;1.15;;;16.20;99.90;;;;;;5053358;28;20028;-90
2023/10/03 09:27:17;;;;;;;6.65;1.33;;;16.20;99.90;;;;;;5053114;28;20465;-90
2023/10/03 09:29:43;;;;;;;2.60;1.15;;;17.50;99.90;;;;;;5053372;28;20039;-90
2023/10/03 09:32:23;;;;;;;3.42;1.30;;;16.90;99.90;;;;;;5053302;28;20453;-90
2023/10/03 09:34:56;;;;;;;5.47;1.42;;;16.10;99.90;;;;;;5052198;28;20037;-90
2023/10/03 09:37:28;;;;;;;6.18;1.40;;;16.40;99.90;;;;;;5053456;28;20032;-90
2023/10/03 09:39:59;;;;;;;6.55;1.75;;;16.10;99.90;;;;;;5055766;28;20021;-91
2023/10/03 09:42:39;;;;;;;;;;;17.10;99.90;;;;;;5058689;28;20127;-90
2023/10/03 09:45:06;;;;;;;7.60;1.63;;;16.00;99.90;;;;;;5057624;28;19896;-90
2023/10/03 09:47:42;;;;;;;11.20;2.05;;;16.00;99.90;;;;;;5058220;28;20025;-90
2023/10/03 09:50:09;;;;;;;1.88;0.82;;;16.00;99.90;;;;;;5059943;28;20025;-90
2023/10/03 09:52:37;;;;;;;3.28;1.00;;;16.00;99.90;;;;;;5061040;28;20027;-91
2023/10/03 09:55:21;;;;;;;2.47;0.80;;;16.40;99.90;;;;;;5053407;28;20033;-91
2023/10/03 09:57:59;;;;;;;3.08;1.15;;;15.90;99.90;;;;;;5052529;28;20118;-89
2023/10/03 10:00:51;;;;;;;5.53;0.85;;;15.70;99.90;;;;;;5053184;28;20367;-90
2023/10/03 10:03:33;;;;;;;3.85;0.90;;;15.70;99.90;;;;;;5052607;28;20054;-90
2023/10/03 10:06:40;;;;;;;3.05;0.90;;;15.80;99.90;;;;;;5053332;28;20025;-91
2023/10/03 10:09:28;;;;;;;3.53;1.00;;;15.70;99.90;;;;;;5052411;28;20480;-91
2023/10/03 10:12:15;;;;;;;5.68;1.40;;;15.70;99.90;;;;;;5053051;28;20039;-91
2023/10/03 10:15:21;;;;;;;8.60;1.63;;;15.80;99.90;;;;;;5053066;28;20029;-90
2023/10/03 10:17:56;;;;;;;3.80;1.23;;;17.00;99.90;;;;;;5055024;28;20029;-90
2023/10/03 10:20:43;;;;;;;4.47;1.15;;;17.10;99.90;;;;;;5058372;28;20228;-90
2023/10/03 10:25:42;;;;;;;6.88;1.60;;;17.20;99.90;;;;;;5044494;28;20017;-94
2023/10/03 10:28:26;;;;;;;9.30;1.35;;;16.00;99.90;;;;;;5050828;28;20029;-93
2023/10/03 10:31:10;;;;;;;10.65;2.00;;;15.90;99.90;;;;;;5038697;28;20380;-86
2023/10/03 10:34:27;;;;;;;2.97;1.13;;;17.10;99.90;;;;;;5041131;28;20056;-86
2023/10/03 10:37:18;;;;;;;4.25;1.50;;;15.80;99.90;;;;;;5043717;28;20057;-85
2023/10/03 10:40:17;;;;;;;5.18;1.73;;;15.70;99.90;;;;;;5033913;28;20021;-86
2023/10/03 10:43:00;;;;;;;4.70;1.55;;;15.60;99.90;;;;;;5031919;28;20075;-86
2023/10/03 10:45:27;;;;;;;5.00;1.55;;;15.60;99.90;;;;;;5043450;28;20025;-86
2023/10/03 10:47:55;;;;;;;9.27;2.10;;;16.30;99.90;;;;;;5053615;28;20533;-86
2023/10/03 10:50:27;;;;;;;6.75;2.00;;;16.60;99.90;;;;;;5054447;28;20496;-85
2023/10/03 10:53:02;;;;;;;5.30;2.03;;;16.70;99.90;;;;;;5053864;28;20025;-84
2023/10/03 10:55:27;;;;;;;7.72;2.30;;;15.80;99.90;;;;;;5047337;28;20323;-88
2023/10/03 10:58:12;;;;;;;5.60;1.85;;;15.80;99.90;;;;;;5053642;28;20119;-88
2023/10/03 11:00:39;;;;;;;8.48;2.10;;;15.80;99.90;;;;;;5059136;28;20067;-89
2023/10/03 11:03:06;;;;;;;6.68;2.63;;;15.90;99.90;;;;;;5077661;28;20024;-89
2023/10/03 11:05:50;;;;;;;7.47;1.90;;;16.60;99.90;;;;;;5073577;28;20068;-90
2023/10/03 11:08:19;;;;;;;8.98;2.22;;;16.00;99.90;;;;;;5078594;28;20096;-89
2023/10/03 11:10:53;;;;;;;6.07;2.45;;;15.70;99.90;;;;;;5073683;28;20037;-90
2023/10/03 11:13:22;;;;;;;8.75;2.88;;;15.70;99.90;;;;;;5057132;28;20021;-89
2023/10/03 11:15:52;;;;;;;6.82;2.25;;;15.70;99.90;;;;;;5066404;28;20047;-88
2023/10/03 11:18:27;;;;;;;6.45;2.35;;;15.60;99.90;;;;;;5077431;28;20013;-89
2023/10/03 11:20:55;;;;;;;7.97;2.38;;;15.70;99.90;;;;;;5076639;28;20029;-90
2023/10/03 11:23:23;;;;;;;7.30;2.55;;;15.40;99.90;;;;;;5059210;28;20021;-89
2023/10/03 11:25:54;;;;;;;6.75;2.55;;;15.30;99.90;;;;;;5054653;28;20469;-88
2023/10/03 11:28:20;;;;;;;9.05;2.70;;;15.30;99.90;;;;;;5053547;28;20055;-89
2023/10/03 11:30:59;;;;;;;6.88;2.80;;;15.20;99.90;;;;;;5054171;28;20446;-88
2023/10/03 11:33:25;;;;;;;12.80;3.20;;;15.20;99.90;;;;;;5054932;28;20051;-88
2023/10/03 11:35:54;;;;;;;7.65;3.28;;;15.20;99.90;;;;;;5067296;28;20048;-89
2023/10/03 11:38:19;;;;;;;8.95;2.70;;;15.10;99.90;;;;;;5055811;28;20057;-90
2023/10/03 11:40:47;;;;;;;11.30;2.75;;;15.10;99.90;;;;;;5054579;28;20029;-90
2023/10/03 11:43:19;;;;;;;8.88;3.38;;;15.20;99.90;;;;;;5055252;28;20538;-89
2023/10/03 11:45:55;;;;;;;9.80;3.20;;;15.40;99.90;;;;;;5054841;28;20147;-89
2023/10/03 11:48:22;;;;;;;10.77;2.30;;;15.20;99.90;;;;;;5054452;28;20092;-89
2023/10/03 11:50:49;;;;;;;10.77;2.90;;;15.30;99.90;;;;;;5055002;28;20029;-88
2023/10/03 11:53:15;;;;;;;10.52;2.50;;;15.20;99.90;;;;;;5055504;28;20021;-90
2023/10/03 11:55:42;;;;;;;7.70;3.08;;;15.10;99.90;;;;;;5056129;28;20035;-89
2023/10/03 11:58:10;;;;;;;11.98;3.05;;;15.10;99.90;;;;;;5054071;28;20116;-90
2023/10/03 12:00:36;;;;;;;7.70;3.00;;;15.20;99.90;;;;;;5055649;28;20025;-90
2023/10/03 12:03:05;;;;;;;9.63;2.55;;;15.20;99.90;;;;;;5054772;28;20465;-89
2023/10/03 12:05:31;;;;;;;6.03;2.63;;;15.20;99.90;;;;;;5055401;28;20533;-89
2023/10/03 12:07:57;;;;;;;9.93;2.88;;;15.40;99.90;;;;;;5057432;28;20021;-89
2023/10/03 12:10:24;;;;;;;13.70;2.90;;;15.40;99.90;;;;;;5057237;28;20034;-89
2023/10/03 12:12:50;;;;;;;15.25;3.60;;;15.70;99.90;;;;;;5056524;28;20043;-88
2023/10/03 12:15:17;;;;;;;12.20;3.78;;;16.00;99.90;;;;;;5055572;28;20370;-90
2023/10/03 12:20:19;;;;;;;12.98;2.67;;;15.70;99.90;;;;;;5483635;22;20123;-87
2023/10/03 12:22:53;;;;;;;12.32;2.97;;;15.70;99.90;;;;;;5039488;28;20017;-85
2023/10/03 12:25:21;;;;;;;9.93;2.50;;;15.80;99.90;;;;;;5053723;28;20025;-87
2023/10/03 12:27:47;;;;;;;9.55;2.88;;;15.70;99.90;;;;;;5053523;28;20032;-88
2023/10/03 12:30:16;;;;;;;11.13;2.58;;;15.70;99.90;;;;;;5053139;28;20029;-89
2023/10/03 12:32:50;;;;;;;8.32;2.63;;;15.60;99.90;;;;;;5054973;28;20132;-89
2023/10/03 12:35:16;;;;;;;9.88;2.80;;;16.00;99.90;;;;;;5052145;28;20037;-90
2023/10/03 12:37:46;;;;;;;8.13;3.67;;;15.50;99.90;;;;;;5033637;28;20017;-89
2023/10/03 12:40:16;;;;;;;7.80;2.53;;;15.50;99.90;;;;;;5034126;28;20104;-90
2023/10/03 12:42:50;;;;;;;11.35;2.60;;;15.40;99.90;;;;;;5052905;28;20152;-90
2023/10/03 12:45:22;;;;;;;17.25;3.17;;;15.30;99.90;;;;;;5046062;28;20026;-90
2023/10/03 12:52:02;;;;;;;8.32;3.15;;;15.10;99.90;;;;;;5052802;28;20062;-90
2023/10/03 13:04:28;;;;;;;7.50;1.95;;;14.80;99.90;;;;;;4935258;29;20032;-91
2023/10/03 13:07:38;;;;;;;6.15;1.80;;;16.00;99.90;;;;;;5042549;28;20056;-90
2023/10/03 13:10:22;;;;;;;10.23;2.28;;;14.90;99.90;;;;;;4973964;28;20135;-90
2023/10/03 13:17:09;;;;;;;7.97;1.95;;;14.10;99.90;;;;;;5439989;22;20142;-91
2023/10/03 13:19:47;;;;;;;6.60;2.60;;;15.00;99.90;;;;;;5016830;28;20084;-90
2023/10/03 13:22:32;;;;;;;4.75;1.88;;;15.80;99.90;;;;;;5015827;28;20056;-89
2023/10/03 13:25:20;;;;;;;5.43;2.30;;;15.40;99.90;;;;;;5062897;28;20036;-89
2023/10/03 13:31:19;;;;;;;4.75;2.40;;;15.00;99.90;;;;;;5075321;28;20035;-88
2023/10/03 13:34:03;;;;;;;5.40;2.22;;;15.30;99.90;;;;;;5055241;28;20047;-88
2023/10/03 13:36:44;;;;;;;6.22;2.47;;;15.90;99.90;;;;;;5074593;28;20033;-91
2023/10/03 13:39:15;;;;;;;10.77;3.15;;;16.90;99.90;;;;;;5073234;28;20032;-89
2023/10/03 13:41:44;;;;;;;8.25;2.50;;;15.80;99.90;;;;;;5074098;28;20043;-90
2023/10/03 13:44:25;;;;;;;7.90;2.22;;;17.50;99.90;;;;;;5075359;28;20033;-92
2023/10/03 13:46:58;;;;;;;8.65;2.58;;;15.50;99.90;;;;;;5146108;22;20107;-91
2023/10/03 13:49:24;;;;;;;5.25;2.58;;;16.20;99.90;;;;;;5052778;28;20040;-90